createdAt,value
2022-07-27T04:58:09.991Z,94881.00
2022-07-27T05:03:11.983Z,94889.00
2022-07-27T05:08:13.911Z,94887.00
2022-07-27T05:13:16.497Z,94898.00
2022-07-27T05:18:19.125Z,94908.00
2022-07-27T05:23:21.112Z,94889.00
2022-07-27T05:28:23.175Z,94905.00
2022-07-27T05:33:25.568Z,94938.00
2022-07-27T05:38:27.677Z,94955.00
2022-07-27T05:43:29.605Z,94970.00
2022-07-27T05:48:31.713Z,94953.00
2022-07-27T05:53:34.930Z,94966.00
2022-07-27T05:58:36.961Z,94945.00
2022-07-27T06:03:39.024Z,94941.00
2022-07-27T06:08:41.034Z,94935.00
2022-07-27T06:13:43.151Z,94941.00
2022-07-27T06:18:45.267Z,94950.00
2022-07-27T06:23:48.410Z,94934.00
2022-07-27T06:28:50.480Z,94969.00
2022-07-27T06:33:53.822Z,94965.00
2022-07-27T06:38:57.952Z,94969.00
2022-07-27T06:44:00.297Z,94981.00
2022-07-27T06:49:02.303Z,94968.00
2022-07-27T06:54:05.119Z,94973.00
2022-07-27T06:59:07.078Z,94970.00
2022-07-27T07:04:09.220Z,94952.00
2022-07-27T07:09:12.036Z,94963.00
2022-07-27T07:14:14.281Z,94957.00
2022-07-27T07:19:16.720Z,94975.00
2022-07-27T07:24:18.796Z,94965.00
2022-07-27T07:29:21.202Z,94958.00
2022-07-27T07:34:23.157Z,94954.00
2022-07-27T07:39:30.841Z,94960.00
2022-07-27T07:44:33.760Z,94962.00
2022-07-27T07:49:39.463Z,94948.00
2022-07-27T07:54:41.963Z,94945.00
2022-07-27T07:59:44.074Z,94942.00
2022-07-27T08:04:46.068Z,94947.00
2022-07-27T08:09:48.048Z,94929.00
2022-07-27T08:14:49.963Z,94932.00
2022-07-27T08:19:52.158Z,94941.00
2022-07-27T08:24:54.243Z,94947.00
2022-07-27T08:29:56.211Z,94941.00
2022-07-27T08:34:58.286Z,94965.00
2022-07-27T08:45:22.273Z,94952.00
2022-07-27T08:50:25.233Z,94945.00
2022-07-27T08:55:30.715Z,94920.00
2022-07-27T09:00:35.451Z,94933.00
2022-07-27T09:05:45.712Z,94932.00
2022-07-27T09:10:47.931Z,94933.00
2022-07-27T09:16:17.965Z,94954.00
2022-07-27T09:21:23.029Z,94954.00
2022-07-27T09:26:33.631Z,94951.00
2022-07-27T09:31:51.997Z,94937.00
2022-07-27T09:36:57.899Z,94956.00
2022-07-27T09:42:02.474Z,94951.00
2022-07-27T09:47:28.789Z,94928.00
2022-07-27T09:52:31.164Z,94934.00
2022-07-27T09:57:58.037Z,94954.00
2022-07-27T10:03:00.823Z,94936.00
2022-07-27T10:08:03.515Z,94941.00
2022-07-27T10:13:05.784Z,94959.00
2022-07-27T10:18:29.806Z,94907.00
2022-07-27T10:23:35.011Z,94937.00
2022-07-27T10:29:00.076Z,94957.00
2022-07-27T10:34:05.705Z,94941.00
2022-07-27T10:39:08.991Z,94964.00
2022-07-27T10:44:17.822Z,94938.00
2022-07-27T10:49:21.855Z,94950.00
2022-07-27T10:54:36.551Z,94973.00
2022-07-27T11:00:06.241Z,94970.00
2022-07-27T11:05:04.912Z,94895.00
2022-07-27T11:10:07.819Z,94948.00
2022-07-27T11:15:10.117Z,94978.00
2022-07-27T11:20:13.315Z,94970.00
2022-07-27T11:25:16.706Z,94927.00
2022-07-27T11:30:28.764Z,94933.00
2022-07-27T11:35:30.822Z,94902.00
2022-07-27T11:40:56.827Z,94957.00
2022-07-27T11:46:24.885Z,94947.00
2022-07-27T11:51:27.263Z,94941.00
2022-07-27T11:56:33.529Z,94960.00
2022-07-27T12:01:46.738Z,94912.00
2022-07-27T12:06:54.423Z,94959.00
2022-07-27T12:12:00.540Z,94952.00
2022-07-27T12:17:25.514Z,94965.00
2022-07-27T12:22:31.684Z,94960.00
2022-07-27T12:27:35.989Z,94970.00
2022-07-27T12:32:45.839Z,94984.00
2022-07-27T12:37:49.374Z,94948.00
2022-07-27T12:43:03.213Z,94981.00
2022-07-27T12:48:27.364Z,94975.00
2022-07-27T12:53:30.562Z,94956.00
2022-07-27T12:58:32.810Z,94968.00
2022-07-27T13:03:36.768Z,94962.00
2022-07-27T13:08:39.058Z,94935.00
2022-07-27T13:13:41.148Z,94933.00
2022-07-27T13:18:43.206Z,94938.00
2022-07-27T13:23:46.954Z,94988.00
2022-07-27T13:28:49.596Z,94972.00
2022-07-27T13:33:53.498Z,94946.00
2022-07-27T13:38:56.666Z,94929.00
2022-07-27T13:43:58.677Z,94952.00
2022-07-27T13:49:01.020Z,94964.00
2022-07-27T13:54:03.093Z,94961.00
2022-07-27T13:59:06.050Z,94914.00
2022-07-27T14:04:10.251Z,94971.00
2022-07-27T14:09:12.823Z,94958.00
2022-07-27T14:14:19.955Z,94930.00
2022-07-27T14:19:30.285Z,94959.00
2022-07-27T14:24:36.212Z,94941.00
2022-07-27T14:29:39.962Z,94958.00
2022-07-27T14:34:41.947Z,94958.00
2022-07-27T14:39:43.910Z,94963.00
2022-07-27T14:44:45.905Z,94931.00
2022-07-27T14:49:47.978Z,94941.00
2022-07-27T14:54:50.106Z,94952.00
2022-07-27T14:59:52.107Z,94961.00
2022-07-27T15:04:54.034Z,94967.00
2022-07-27T15:09:56.082Z,94919.00
2022-07-27T15:14:58.055Z,94925.00
2022-07-27T15:20:00.224Z,94940.00
2022-07-27T15:25:02.749Z,94942.00
2022-07-27T15:30:05.710Z,94962.00
2022-07-27T15:35:08.406Z,94958.00
2022-07-27T15:40:29.805Z,94982.00
2022-07-27T15:45:31.918Z,94997.00
2022-07-27T15:50:35.272Z,94982.00
2022-07-27T15:55:38.062Z,95013.00
2022-07-27T16:00:41.024Z,94952.00
2022-07-27T16:05:47.572Z,95001.00
2022-07-27T16:10:49.961Z,94992.00
2022-07-27T16:16:11.257Z,95000.00
2022-07-27T16:21:13.381Z,95000.00
2022-07-27T16:26:15.893Z,95009.00
2022-07-27T16:31:20.396Z,94999.00
2022-07-27T16:36:22.994Z,94979.00
2022-07-27T16:41:25.067Z,94993.00
2022-07-27T16:46:27.599Z,94981.00
2022-07-27T16:51:29.732Z,94985.00
2022-07-27T16:56:32.279Z,95000.00
2022-07-27T17:01:34.377Z,94993.00
2022-07-27T17:07:01.464Z,94999.00
2022-07-27T17:12:03.798Z,94996.00
2022-07-27T17:17:06.242Z,94992.00
2022-07-27T17:22:08.202Z,94999.00
2022-07-27T17:27:10.259Z,95012.00
2022-07-27T17:32:12.260Z,95010.00
2022-07-27T17:37:15.822Z,94997.00
2022-07-27T17:42:17.982Z,95003.00
2022-07-27T17:47:20.200Z,95034.00
2022-07-27T17:52:22.411Z,94996.00
2022-07-27T17:57:24.567Z,95031.00
2022-07-27T18:02:26.644Z,95012.00
2022-07-27T18:07:28.684Z,95020.00
2022-07-27T18:12:30.691Z,95043.00
2022-07-27T18:17:34.821Z,95020.00
2022-07-27T18:22:38.662Z,95046.00
2022-07-27T18:27:42.923Z,95037.00
2022-07-27T18:32:45.526Z,95014.00
2022-07-27T18:37:47.600Z,95019.00
2022-07-27T18:42:49.650Z,95035.00
2022-07-27T18:47:51.729Z,95009.00
2022-07-27T18:52:54.377Z,95048.00
2022-07-27T18:57:56.418Z,95026.00
2022-07-27T19:02:59.001Z,95069.00
2022-07-27T19:08:02.588Z,95041.00
2022-07-27T19:13:04.657Z,95045.00
2022-07-27T19:18:08.294Z,95086.00
2022-07-27T19:23:10.421Z,95051.00
2022-07-27T19:28:15.986Z,95095.00
2022-07-27T19:33:18.300Z,95060.00
2022-07-27T19:38:20.367Z,95086.00
2022-07-27T19:43:23.344Z,95093.00
2022-07-27T19:48:27.788Z,95083.00
2022-07-27T19:53:30.455Z,95087.00
2022-07-27T19:58:32.507Z,95116.00
2022-07-27T20:03:35.024Z,95102.00
2022-07-27T20:08:59.386Z,95112.00
2022-07-27T20:14:02.709Z,95124.00
2022-07-27T20:19:04.847Z,95122.00
2022-07-27T20:24:07.649Z,95135.00
2022-07-27T20:29:10.003Z,95108.00
2022-07-27T20:34:12.257Z,95129.00
2022-07-27T20:39:17.537Z,95126.00
2022-07-27T20:44:21.138Z,95133.00
2022-07-27T20:49:24.842Z,95125.00
2022-07-27T20:54:29.463Z,95137.00
2022-07-27T20:59:33.168Z,95150.00
